createdAt,value
2017-09-24T00:00:32.737Z,15.12
2017-09-24T00:01:32.633Z,15.08
2017-09-24T00:02:32.937Z,15.02
2017-09-24T00:03:32.412Z,14.94
2017-09-24T00:04:32.621Z,15.02
2017-09-24T00:05:32.763Z,14.93
2017-09-24T00:06:33.064Z,14.94
2017-09-24T00:07:32.915Z,14.86
2017-09-24T00:08:32.283Z,14.81
2017-09-24T00:09:32.896Z,14.79
2017-09-24T00:10:32.997Z,14.92
2017-09-24T00:11:32.270Z,14.9
2017-09-24T00:12:32.574Z,14.92
2017-09-24T00:13:32.670Z,14.81
2017-09-24T00:14:32.567Z,14.89
2017-09-24T00:15:33.016Z,14.93
2017-09-24T00:16:32.243Z,14.9
2017-09-24T00:17:32.241Z,14.89
2017-09-24T00:18:32.234Z,14.94
2017-09-24T00:19:32.533Z,14.86
2017-09-24T00:20:32.223Z,14.92
2017-09-24T00:21:32.838Z,14.89
2017-09-24T00:22:32.212Z,14.96
2017-09-24T00:23:32.619Z,14.93
2017-09-24T00:24:32.918Z,14.89
2017-09-24T00:25:32.507Z,14.92
2017-09-24T00:26:32.192Z,14.87
2017-09-24T00:27:32.186Z,14.94
2017-09-24T00:28:32.492Z,14.92
2017-09-24T00:29:32.795Z,14.82
2017-09-24T00:30:32.896Z,14.77
2017-09-24T00:31:32.266Z,14.82
2017-09-24T00:32:32.622Z,14.85
2017-09-24T00:33:32.152Z,14.78
2017-09-24T00:34:32.459Z,14.82
2017-09-24T00:35:32.142Z,14.81
2017-09-24T00:36:32.600Z,14.71
2017-09-24T00:37:32.854Z,14.68
2017-09-24T00:38:32.439Z,14.71
2017-09-24T00:39:32.739Z,14.74
2017-09-24T00:40:32.531Z,14.7
2017-09-24T00:41:32.422Z,14.53
2017-09-24T00:42:32.416Z,14.59
2017-09-24T00:43:32.820Z,14.53
2017-09-24T00:44:32.405Z,14.56
2017-09-24T00:45:32.091Z,14.58
2017-09-24T00:46:32.709Z,14.49
2017-09-24T00:47:32.852Z,14.51
2017-09-24T00:48:32.696Z,14.49
2017-09-24T00:49:32.483Z,14.49
2017-09-24T00:50:32.687Z,14.53
2017-09-24T00:51:32.369Z,14.61
2017-09-24T00:52:32.054Z,14.52
2017-09-24T00:53:32.048Z,14.59
2017-09-24T00:54:32.351Z,14.61
2017-09-24T00:55:32.659Z,14.55
2017-09-24T00:56:32.656Z,14.55
2017-09-24T00:57:32.693Z,14.53
2017-09-24T00:58:32.483Z,14.58
2017-09-24T00:59:32.638Z,14.58
2017-09-24T01:00:32.011Z,14.58
2017-09-24T01:01:32.320Z,14.55
2017-09-24T01:02:32.721Z,14.48
2017-09-24T01:03:32.407Z,14.49
2017-09-24T01:04:32.712Z,14.43
2017-09-24T01:05:32.332Z,14.48
2017-09-24T01:06:31.979Z,14.43
2017-09-24T01:07:31.978Z,14.48
2017-09-24T01:08:32.278Z,14.44
2017-09-24T01:09:31.962Z,14.45
2017-09-24T01:10:31.960Z,14.4
2017-09-24T01:11:32.265Z,14.45
2017-09-24T01:12:32.360Z,14.45
2017-09-24T01:13:32.354Z,14.43
2017-09-24T01:14:32.246Z,14.43
2017-09-24T01:15:31.930Z,14.4
2017-09-24T01:16:32.550Z,14.36
2017-09-24T01:17:31.922Z,14.4
2017-09-24T01:18:32.326Z,14.38
2017-09-24T01:19:32.370Z,14.4
2017-09-24T01:20:32.220Z,14.34
2017-09-24T01:21:32.625Z,14.19
2017-09-24T01:22:32.203Z,14.31
2017-09-24T01:23:32.333Z,14.26
2017-09-24T01:24:32.396Z,14.25
2017-09-24T01:25:32.187Z,14.23
2017-09-24T01:26:31.874Z,14.2
2017-09-24T01:27:32.588Z,14.25
2017-09-24T01:28:32.174Z,14.26
2017-09-24T01:29:32.419Z,14.26
2017-09-24T01:30:32.471Z,14.31
2017-09-24T01:31:32.467Z,14.2
2017-09-24T01:32:32.302Z,14.2
2017-09-24T01:33:31.936Z,14.19
2017-09-24T01:34:32.148Z,14.28
2017-09-24T01:35:32.237Z,14.26
2017-09-24T01:36:31.821Z,14.26
2017-09-24T01:37:31.915Z,14.19
2017-09-24T01:38:31.807Z,14.15
2017-09-24T01:39:32.427Z,14.11
2017-09-24T01:40:31.900Z,14.05
2017-09-24T01:41:32.105Z,14.05
2017-09-24T01:42:32.198Z,13.98
2017-09-24T01:43:31.783Z,13.98
2017-09-24T01:44:32.403Z,13.98
2017-09-24T01:45:32.083Z,14.01
2017-09-24T01:46:32.075Z,13.97
2017-09-24T01:47:32.329Z,13.97
2017-09-24T01:48:32.372Z,13.98
2017-09-24T01:49:32.062Z,14.01
2017-09-24T01:50:32.056Z,13.95
2017-09-24T01:51:32.363Z,13.89
2017-09-24T01:52:31.834Z,13.89
2017-09-24T01:53:32.503Z,13.91
2017-09-24T01:54:32.342Z,13.76
2017-09-24T01:55:31.719Z,13.8
2017-09-24T01:56:32.535Z,13.75
2017-09-24T01:57:32.440Z,13.73
2017-09-24T01:58:32.325Z,13.85
2017-09-24T01:59:32.009Z,13.82
2017-09-24T02:00:32.313Z,13.85
2017-09-24T02:01:31.997Z,13.93
2017-09-24T02:02:31.993Z,13.87
2017-09-24T02:03:32.294Z,13.8
2017-09-24T02:04:32.286Z,13.95
2017-09-24T02:05:31.976Z,13.98
2017-09-24T02:06:32.380Z,13.94
2017-09-24T02:07:32.065Z,14.01
2017-09-24T02:08:31.649Z,13.97
2017-09-24T02:09:31.952Z,13.93
2017-09-24T02:10:32.098Z,13.8
2017-09-24T02:11:31.633Z,13.78
2017-09-24T02:12:32.247Z,13.8
2017-09-24T02:13:32.394Z,13.7
2017-09-24T02:14:31.928Z,13.6
2017-09-24T02:15:31.922Z,13.62
2017-09-24T02:16:31.915Z,13.65
2017-09-24T02:17:32.319Z,13.67
2017-09-24T02:18:31.595Z,13.65
2017-09-24T02:19:31.901Z,13.55
2017-09-24T02:20:32.303Z,13.58
2017-09-24T02:21:31.889Z,13.5
2017-09-24T02:22:31.570Z,13.5
2017-09-24T02:23:31.569Z,13.55
2017-09-24T02:24:32.182Z,13.47
2017-09-24T02:25:31.871Z,13.49
2017-09-24T02:26:31.861Z,13.47
2017-09-24T02:27:31.858Z,13.49
2017-09-24T02:28:31.542Z,13.47
2017-09-24T02:29:31.845Z,13.49
2017-09-24T02:30:32.162Z,13.49
2017-09-24T02:31:31.835Z,13.49
2017-09-24T02:32:31.828Z,13.5
2017-09-24T02:33:31.824Z,13.49
2017-09-24T02:34:31.922Z,13.46
2017-09-24T02:35:31.813Z,13.39
2017-09-24T02:36:31.812Z,13.49
2017-09-24T02:37:31.643Z,13.39
2017-09-24T02:38:31.947Z,13.43
2017-09-24T02:39:32.109Z,13.46
2017-09-24T02:40:32.207Z,13.5
2017-09-24T02:41:32.092Z,13.52
2017-09-24T02:42:31.775Z,13.47
2017-09-24T02:43:31.461Z,13.45
2017-09-24T02:44:32.083Z,13.43
2017-09-24T02:45:32.071Z,13.37
2017-09-24T02:46:32.065Z,13.37
2017-09-24T02:47:31.440Z,13.26
2017-09-24T02:48:31.743Z,13.26
2017-09-24T02:49:31.736Z,13.27
2017-09-24T02:50:31.935Z,13.39
2017-09-24T02:51:32.042Z,13.28
2017-09-24T02:52:31.722Z,13.33
2017-09-24T02:53:31.506Z,13.33
2017-09-24T02:54:32.022Z,13.33
2017-09-24T02:55:32.016Z,13.37
2017-09-24T02:56:31.699Z,13.36
2017-09-24T02:57:31.390Z,13.33
2017-09-24T02:58:31.791Z,13.33
2017-09-24T02:59:31.689Z,13.31
2017-09-24T03:00:31.807Z,13.33
2017-09-24T03:01:31.982Z,13.27
2017-09-24T03:02:32.078Z,13.2
2017-09-24T03:03:31.658Z,13.17
2017-09-24T03:04:31.655Z,13.3
2017-09-24T03:05:31.649Z,13.3
2017-09-24T03:06:31.332Z,13.17
2017-09-24T03:07:31.640Z,13.13
2017-09-24T03:08:31.424Z,13.13
2017-09-24T03:09:31.941Z,13.2
2017-09-24T03:10:32.133Z,13.13
2017-09-24T03:11:31.409Z,13.12
2017-09-24T03:12:31.616Z,13.05
2017-09-24T03:13:31.401Z,13.06
2017-09-24T03:14:31.911Z,13.09
2017-09-24T03:15:31.795Z,13.06
2017-09-24T03:16:31.906Z,13.08
2017-09-24T03:17:31.592Z,13.08
2017-09-24T03:18:31.677Z,13.09
2017-09-24T03:19:31.414Z,13.13
2017-09-24T03:20:31.878Z,13.19
2017-09-24T03:21:31.562Z,13.16
2017-09-24T03:22:31.864Z,13.19
2017-09-24T03:23:31.240Z,13.09
2017-09-24T03:24:31.549Z,13.11
2017-09-24T03:25:31.543Z,13.06
2017-09-24T03:26:31.375Z,13.01
2017-09-24T03:27:31.843Z,13.08
2017-09-24T03:28:31.831Z,13.06
2017-09-24T03:29:31.307Z,13.03
2017-09-24T03:30:31.837Z,13.02
2017-09-24T03:31:31.967Z,13.01
2017-09-24T03:32:31.813Z,13.01
2017-09-24T03:33:31.505Z,13.02
2017-09-24T03:34:31.959Z,12.94
2017-09-24T03:35:31.274Z,12.91
2017-09-24T03:36:31.478Z,12.9
2017-09-24T03:37:31.793Z,12.93
2017-09-24T03:38:31.672Z,12.84
2017-09-24T03:39:31.559Z,12.84
2017-09-24T03:40:31.915Z,12.83
2017-09-24T03:41:31.453Z,12.83
2017-09-24T03:42:31.545Z,12.83
2017-09-24T03:43:31.754Z,12.75
2017-09-24T03:44:31.543Z,12.78
2017-09-24T03:45:31.430Z,12.8
2017-09-24T03:46:31.266Z,12.91
2017-09-24T03:47:31.108Z,12.95
2017-09-24T03:48:31.103Z,13.02
2017-09-24T03:49:31.819Z,13.12
2017-09-24T03:50:31.401Z,13.06
2017-09-24T03:51:31.396Z,13.05
2017-09-24T03:52:31.420Z,13.06
2017-09-24T03:53:31.797Z,13.08
2017-09-24T03:54:31.483Z,13.08
2017-09-24T03:55:31.371Z,12.99
2017-09-24T03:56:31.681Z,13.06
2017-09-24T03:57:31.366Z,12.99
2017-09-24T03:58:31.357Z,13.06
2017-09-24T03:59:31.352Z,12.95
2017-09-24T04:00:31.652Z,13.01
2017-09-24T04:01:31.348Z,12.9
2017-09-24T04:02:31.027Z,12.84
2017-09-24T04:03:31.221Z,12.72
2017-09-24T04:04:31.325Z,12.72
2017-09-24T04:05:31.731Z,12.73
2017-09-24T04:06:31.030Z,12.76
2017-09-24T04:07:31.306Z,12.68
2017-09-24T04:08:31.304Z,12.7
2017-09-24T04:09:31.085Z,12.72
2017-09-24T04:10:31.293Z,12.73
2017-09-24T04:11:31.595Z,12.78
2017-09-24T04:12:31.288Z,12.83
2017-09-24T04:13:30.965Z,12.7
2017-09-24T04:14:30.960Z,12.73
2017-09-24T04:15:31.056Z,12.8
2017-09-24T04:16:31.568Z,12.73
2017-09-24T04:17:31.356Z,12.78
2017-09-24T04:18:31.245Z,12.75
2017-09-24T04:19:31.239Z,12.7
2017-09-24T04:20:31.337Z,12.69
2017-09-24T04:21:31.334Z,12.75
2017-09-24T04:22:31.534Z,12.72
2017-09-24T04:23:31.221Z,12.72
2017-09-24T04:24:30.902Z,12.73
2017-09-24T04:25:31.309Z,12.76
2017-09-24T04:26:31.612Z,12.73
2017-09-24T04:27:31.201Z,12.75
2017-09-24T04:28:31.191Z,12.76
2017-09-24T04:29:30.872Z,12.75
2017-09-24T04:30:30.871Z,12.66
2017-09-24T04:31:31.324Z,12.73
2017-09-24T04:32:30.860Z,12.75
2017-09-24T04:33:31.475Z,12.75
2017-09-24T04:34:31.159Z,12.72
2017-09-24T04:35:30.841Z,12.76
2017-09-24T04:36:31.453Z,12.7
2017-09-24T04:37:31.245Z,12.7
2017-09-24T04:38:31.137Z,12.7
2017-09-24T04:39:31.440Z,12.73
2017-09-24T04:40:31.435Z,12.78
2017-09-24T04:41:30.909Z,12.78
2017-09-24T04:42:31.213Z,12.8
2017-09-24T04:43:31.358Z,12.8
2017-09-24T04:44:30.792Z,12.86
2017-09-24T04:45:31.120Z,12.93
2017-09-24T04:46:31.091Z,12.95
2017-09-24T04:47:31.187Z,12.93
2017-09-24T04:48:30.769Z,12.9
2017-09-24T04:49:31.090Z,12.88
2017-09-24T04:50:31.071Z,12.76
2017-09-24T04:51:31.063Z,12.75
2017-09-24T04:52:30.781Z,12.86
2017-09-24T04:53:31.361Z,12.73
2017-09-24T04:54:31.045Z,12.7
2017-09-24T04:55:31.043Z,12.7
2017-09-24T04:56:31.035Z,12.63
2017-09-24T04:57:30.818Z,12.54
2017-09-24T04:58:30.715Z,12.55
2017-09-24T04:59:30.708Z,12.58
2017-09-24T05:00:31.011Z,12.73
2017-09-24T05:01:31.475Z,12.72
2017-09-24T05:02:31.049Z,12.8
2017-09-24T05:03:31.411Z,12.68
2017-09-24T05:04:31.307Z,12.73
2017-09-24T05:05:30.985Z,12.73
2017-09-24T05:06:30.982Z,12.73
2017-09-24T05:07:31.295Z,12.72
2017-09-24T05:08:30.968Z,12.78
2017-09-24T05:09:30.653Z,12.8
2017-09-24T05:10:31.469Z,12.83
2017-09-24T05:11:30.639Z,12.84
2017-09-24T05:12:30.784Z,12.83
2017-09-24T05:13:30.728Z,12.81
2017-09-24T05:14:30.933Z,12.8
2017-09-24T05:15:30.616Z,12.81
2017-09-24T05:16:31.110Z,12.84
2017-09-24T05:17:30.706Z,12.83
2017-09-24T05:18:30.906Z,12.69
2017-09-24T05:19:30.593Z,12.72
2017-09-24T05:20:30.900Z,12.53
2017-09-24T05:21:30.892Z,12.48
2017-09-24T05:22:31.197Z,12.44
2017-09-24T05:23:31.188Z,12.4
2017-09-24T05:24:30.980Z,12.48
2017-09-24T05:25:31.176Z,12.5
2017-09-24T05:26:30.556Z,12.58
2017-09-24T05:27:30.550Z,12.58
2017-09-24T05:28:30.952Z,12.54
2017-09-24T05:29:31.157Z,12.62
2017-09-24T05:30:30.842Z,12.62
2017-09-24T05:31:30.935Z,12.61
2017-09-24T05:32:30.931Z,12.58
2017-09-24T05:33:31.141Z,12.62
2017-09-24T05:34:30.917Z,12.66
2017-09-24T05:35:30.505Z,12.61
2017-09-24T05:36:30.812Z,12.72
2017-09-24T05:37:30.806Z,12.84
2017-09-24T05:38:31.210Z,12.7
2017-09-24T05:39:30.479Z,12.83
2017-09-24T05:40:30.887Z,12.81
2017-09-24T05:41:30.782Z,12.81
2017-09-24T05:42:31.084Z,12.81
2017-09-24T05:43:30.867Z,12.78
2017-09-24T05:44:31.175Z,12.81
2017-09-24T05:45:30.761Z,12.84
2017-09-24T05:46:30.444Z,12.84
2017-09-24T05:47:30.748Z,12.93
2017-09-24T05:48:30.839Z,12.95
2017-09-24T05:49:30.423Z,12.95
2017-09-24T05:50:30.731Z,12.99
2017-09-24T05:51:30.726Z,13.05
2017-09-24T05:52:30.717Z,13.03
2017-09-24T05:53:30.712Z,13.05
2017-09-24T05:54:31.019Z,13.17
2017-09-24T05:55:30.801Z,13.13
2017-09-24T05:56:30.385Z,13.2
2017-09-24T05:57:30.581Z,13.19
2017-09-24T05:58:30.375Z,13.17
2017-09-24T05:59:30.989Z,13.05
2017-09-24T06:00:30.611Z,13.08
2017-09-24T06:01:30.967Z,13.08
2017-09-24T06:02:30.960Z,13.19
2017-09-24T06:03:30.438Z,13.11
2017-09-24T06:04:30.641Z,13.09
2017-09-24T06:05:30.637Z,13.08
2017-09-24T06:06:31.040Z,13.09
2017-09-24T06:07:30.635Z,13.06
2017-09-24T06:08:30.720Z,13.05
2017-09-24T06:09:30.613Z,13.02
2017-09-24T06:10:30.612Z,12.95
2017-09-24T06:11:30.443Z,12.87
2017-09-24T06:12:30.595Z,12.8
2017-09-24T06:13:30.902Z,12.84
2017-09-24T06:14:30.585Z,12.76
2017-09-24T06:15:30.269Z,12.84
2017-09-24T06:16:30.722Z,12.94
2017-09-24T06:17:30.882Z,13.12
2017-09-24T06:18:30.666Z,13.12
2017-09-24T06:19:30.558Z,13.17
2017-09-24T06:20:30.554Z,13.13
2017-09-24T06:21:30.857Z,13.26
2017-09-24T06:22:30.539Z,13.16
2017-09-24T06:23:30.536Z,13.19
2017-09-24T06:24:30.528Z,13.23
2017-09-24T06:25:30.626Z,13.19
2017-09-24T06:26:30.522Z,13.16
2017-09-24T06:27:30.513Z,13.12
2017-09-24T06:28:30.198Z,13.11
2017-09-24T06:29:30.501Z,13.09
2017-09-24T06:30:30.289Z,13.06
2017-09-24T06:31:30.279Z,13.03
2017-09-24T06:32:30.482Z,13.03
2017-09-24T06:33:30.476Z,13.09
2017-09-24T06:34:30.164Z,13.08
2017-09-24T06:35:30.466Z,13.16
2017-09-24T06:36:30.333Z,13.21
2017-09-24T06:37:30.456Z,13.23
2017-09-24T06:38:30.139Z,13.13
2017-09-24T06:39:30.442Z,13.2
2017-09-24T06:40:30.128Z,13.24
2017-09-24T06:41:30.434Z,13.17
2017-09-24T06:42:30.523Z,13.13
2017-09-24T06:43:30.261Z,13.28
2017-09-24T06:44:30.416Z,13.19
2017-09-24T06:45:30.413Z,13.28
2017-09-24T06:46:30.095Z,13.2
2017-09-24T06:47:30.596Z,13.26
2017-09-24T06:48:30.392Z,13.23
2017-09-24T06:49:30.388Z,13.23
2017-09-24T06:50:30.694Z,13.26
2017-09-24T06:51:30.694Z,13.3
2017-09-24T06:52:30.523Z,13.36
2017-09-24T06:53:30.366Z,13.39
2017-09-24T06:54:30.505Z,13.49
2017-09-24T06:55:30.668Z,13.49
2017-09-24T06:56:30.038Z,13.49
2017-09-24T06:57:30.442Z,13.47
2017-09-24T06:58:30.336Z,13.5
2017-09-24T06:59:30.023Z,13.49
2017-09-24T07:00:30.474Z,13.49
2017-09-24T07:01:30.318Z,13.55
2017-09-24T07:02:30.318Z,13.54
2017-09-24T07:03:30.618Z,13.58
2017-09-24T07:04:29.992Z,13.61
2017-09-24T07:05:29.985Z,13.6
2017-09-24T07:06:30.289Z,13.65
2017-09-24T07:07:30.126Z,13.67
2017-09-24T07:08:30.279Z,13.73
2017-09-24T07:09:30.275Z,13.76
2017-09-24T07:10:30.371Z,13.79
2017-09-24T07:11:29.953Z,13.79
2017-09-24T07:12:30.598Z,13.79
2017-09-24T07:13:30.559Z,13.85
2017-09-24T07:14:30.245Z,13.73
2017-09-24T07:15:30.243Z,13.76
2017-09-24T07:16:30.544Z,13.79
2017-09-24T07:17:29.919Z,13.83
2017-09-24T07:18:30.014Z,13.91
2017-09-24T07:19:30.162Z,13.82
2017-09-24T07:20:30.211Z,13.87
2017-09-24T07:21:30.206Z,13.93
2017-09-24T07:22:30.513Z,13.97
2017-09-24T07:23:30.196Z,14.03
2017-09-24T07:24:30.192Z,14.05
2017-09-24T07:25:30.188Z,14.11
2017-09-24T07:26:30.180Z,14.25
2017-09-24T07:27:29.864Z,14.25
2017-09-24T07:28:30.470Z,14.26
2017-09-24T07:29:29.854Z,14.36
2017-09-24T07:30:30.467Z,14.34
2017-09-24T07:31:30.154Z,14.3
2017-09-24T07:32:30.146Z,14.41
2017-09-24T07:33:30.289Z,14.34
2017-09-24T07:34:29.825Z,14.37
2017-09-24T07:35:30.459Z,14.38
2017-09-24T07:36:30.432Z,14.3
2017-09-24T07:37:30.116Z,14.37
2017-09-24T07:38:30.422Z,14.33
2017-09-24T07:39:30.527Z,14.45
2017-09-24T07:40:30.101Z,14.36
2017-09-24T07:41:30.507Z,14.41
2017-09-24T07:42:30.094Z,14.4
2017-09-24T07:43:30.085Z,14.34
2017-09-24T07:44:29.868Z,14.38
2017-09-24T07:45:30.077Z,14.34
2017-09-24T07:46:30.067Z,14.41
2017-09-24T07:47:30.472Z,14.4
2017-09-24T07:48:29.748Z,14.4
2017-09-24T07:49:30.200Z,14.38
2017-09-24T07:50:30.152Z,14.44
2017-09-24T07:51:30.140Z,14.49
2017-09-24T07:52:30.034Z,14.49
2017-09-24T07:53:29.817Z,14.56
2017-09-24T07:54:30.030Z,14.49
2017-09-24T07:55:30.168Z,14.58
2017-09-24T07:56:30.326Z,14.52
2017-09-24T07:57:29.697Z,14.56
2017-09-24T07:58:29.699Z,14.53
2017-09-24T07:59:30.096Z,14.61
2017-09-24T08:00:29.989Z,14.45
2017-09-24T08:01:29.990Z,14.51
2017-09-24T08:02:29.771Z,14.7
2017-09-24T08:03:29.977Z,14.7
2017-09-24T08:04:30.375Z,14.66
2017-09-24T08:05:30.270Z,14.68
2017-09-24T08:06:30.055Z,14.86
2017-09-24T08:07:29.639Z,14.93
2017-09-24T08:08:29.636Z,14.92
2017-09-24T08:09:30.041Z,15.04
2017-09-24T08:10:29.933Z,14.99
2017-09-24T08:11:29.771Z,15.02
2017-09-24T08:12:30.240Z,15.08
2017-09-24T08:13:30.331Z,15
2017-09-24T08:14:30.064Z,15.04
2017-09-24T08:15:29.906Z,15.05
2017-09-24T08:16:29.906Z,15.12
2017-09-24T08:17:29.901Z,15.07
2017-09-24T08:18:29.892Z,15.14
2017-09-24T08:19:29.987Z,15.11
2017-09-24T08:20:30.189Z,15.14
2017-09-24T08:21:30.186Z,15.14
2017-09-24T08:22:29.560Z,15.08
2017-09-24T08:23:30.174Z,15.17
2017-09-24T08:24:29.800Z,15.23
2017-09-24T08:25:29.544Z,15.25
2017-09-24T08:26:29.851Z,15.19
2017-09-24T08:27:29.555Z,15.3
2017-09-24T08:28:29.836Z,15.25
2017-09-24T08:29:29.519Z,15.41
2017-09-24T08:30:29.977Z,15.44
2017-09-24T08:31:29.920Z,15.47
2017-09-24T08:32:29.605Z,15.44
2017-09-24T08:33:29.811Z,15.37
2017-09-24T08:34:29.802Z,15.45
2017-09-24T08:35:29.795Z,15.52
2017-09-24T08:36:29.482Z,15.44
2017-09-24T08:37:29.784Z,15.52
2017-09-24T08:38:29.474Z,15.52
2017-09-24T08:39:29.465Z,15.6
2017-09-24T08:40:30.230Z,15.6
2017-09-24T08:41:29.766Z,15.65
2017-09-24T08:42:29.758Z,15.62
2017-09-24T08:43:30.166Z,15.63
2017-09-24T08:44:30.162Z,15.75
2017-09-24T08:45:30.050Z,15.76
2017-09-24T08:46:30.044Z,15.72
2017-09-24T08:47:29.734Z,15.75
2017-09-24T08:48:29.520Z,15.72
2017-09-24T08:49:29.720Z,15.81
2017-09-24T08:50:29.714Z,15.9
2017-09-24T08:51:29.402Z,15.84
2017-09-24T08:52:29.707Z,15.9
2017-09-24T08:53:29.697Z,15.94
2017-09-24T08:54:29.695Z,15.96
2017-09-24T08:55:29.692Z,15.99
2017-09-24T08:56:29.687Z,16.03
2017-09-24T08:57:29.687Z,15.99
2017-09-24T08:58:29.674Z,15.99
2017-09-24T08:59:29.363Z,15.94
2017-09-24T09:00:29.664Z,15.94
2017-09-24T09:01:29.450Z,15.92
2017-09-24T09:02:29.655Z,16.03
2017-09-24T09:03:29.646Z,15.99
2017-09-24T09:04:29.952Z,15.98
2017-09-24T09:05:29.636Z,15.99
2017-09-24T09:06:29.629Z,16.09
2017-09-24T09:07:29.316Z,16.1
2017-09-24T09:08:29.719Z,16.09
2017-09-24T09:09:30.026Z,16.09
2017-09-24T09:10:30.014Z,16.08
2017-09-24T09:11:29.605Z,16.09
2017-09-24T09:12:29.906Z,16.06
2017-09-24T09:13:29.592Z,16.09
2017-09-24T09:14:29.687Z,16.06
2017-09-24T09:15:29.274Z,16.05
2017-09-24T09:16:29.268Z,16.03
2017-09-24T09:17:29.363Z,16.02
2017-09-24T09:18:29.567Z,16.09
2017-09-24T09:19:29.874Z,16.09
2017-09-24T09:20:29.660Z,16.09
2017-09-24T09:21:29.242Z,16.13
2017-09-24T09:22:29.236Z,16.17
2017-09-24T09:23:29.539Z,16.24
2017-09-24T09:24:29.535Z,16.31
2017-09-24T09:25:29.989Z,16.4
2017-09-24T09:26:29.530Z,16.39
2017-09-24T09:27:29.520Z,16.37
2017-09-24T09:28:29.517Z,16.32
2017-09-24T09:29:29.512Z,16.34
2017-09-24T09:30:29.293Z,16.32
2017-09-24T09:31:29.595Z,16.39
2017-09-24T09:32:29.802Z,16.29
2017-09-24T09:33:29.949Z,16.29
2017-09-24T09:34:29.791Z,16.34
2017-09-24T09:35:29.479Z,16.39
2017-09-24T09:36:29.779Z,16.37
2017-09-24T09:37:29.923Z,16.4
2017-09-24T09:38:29.563Z,16.37
2017-09-24T09:39:29.147Z,16.41
2017-09-24T09:40:29.451Z,16.5
2017-09-24T09:41:29.443Z,16.55
2017-09-24T09:42:29.439Z,16.5
2017-09-24T09:43:29.131Z,16.5
2017-09-24T09:44:29.432Z,16.54
2017-09-24T09:45:29.741Z,16.46
2017-09-24T09:46:29.729Z,16.61
2017-09-24T09:47:29.410Z,16.49
2017-09-24T09:48:29.417Z,16.58
2017-09-24T09:49:29.092Z,16.51
2017-09-24T09:50:29.396Z,16.61
2017-09-24T09:51:29.396Z,16.66
2017-09-24T09:52:29.377Z,16.74
2017-09-24T09:53:29.690Z,16.79
2017-09-24T09:54:29.379Z,16.86
2017-09-24T09:55:29.372Z,17.1
2017-09-24T09:56:29.369Z,17.14
2017-09-24T09:57:29.512Z,17.13
2017-09-24T09:58:29.365Z,17.28
2017-09-24T09:59:29.351Z,17.32
2017-09-24T10:00:29.351Z,17.37
2017-09-24T10:01:29.337Z,17.39
2017-09-24T10:02:29.340Z,17.39
2017-09-24T10:03:29.023Z,17.35
2017-09-24T10:04:29.638Z,17.37
2017-09-24T10:05:29.319Z,17.39
2017-09-24T10:06:29.006Z,17.34
2017-09-24T10:07:29.000Z,17.34
2017-09-24T10:08:29.145Z,17.3
2017-09-24T10:09:28.990Z,17.32
2017-09-24T10:10:29.443Z,17.27
2017-09-24T10:11:29.288Z,17.24
2017-09-24T10:12:28.975Z,17.27
2017-09-24T10:13:29.380Z,17.27
2017-09-24T10:14:29.379Z,17.27
2017-09-24T10:15:29.419Z,17.28
2017-09-24T10:16:29.263Z,17.3
2017-09-24T10:17:28.947Z,17.37
2017-09-24T10:18:29.560Z,17.35
2017-09-24T10:19:29.249Z,17.37
2017-09-24T10:20:29.344Z,17.37
2017-09-24T10:21:29.236Z,17.32
2017-09-24T10:22:28.922Z,17.31
2017-09-24T10:23:29.227Z,17.31
2017-09-24T10:24:29.532Z,17.3
2017-09-24T10:25:29.466Z,17.34
2017-09-24T10:26:29.210Z,17.42
2017-09-24T10:27:29.211Z,17.35
2017-09-24T10:28:29.515Z,17.32
2017-09-24T10:29:28.989Z,17.34
2017-09-24T10:30:29.194Z,17.39
2017-09-24T10:31:29.195Z,17.5
2017-09-24T10:32:29.183Z,17.42
2017-09-24T10:33:28.870Z,17.44
2017-09-24T10:34:29.171Z,17.42
2017-09-24T10:35:29.167Z,17.41
2017-09-24T10:36:29.299Z,17.49
2017-09-24T10:37:29.260Z,17.49
2017-09-24T10:38:28.844Z,17.56
2017-09-24T10:39:28.834Z,17.66
2017-09-24T10:40:28.833Z,17.63
2017-09-24T10:41:29.547Z,17.66
2017-09-24T10:42:28.855Z,17.75
2017-09-24T10:43:29.129Z,17.8
2017-09-24T10:44:29.119Z,17.8
2017-09-24T10:45:29.538Z,17.88
2017-09-24T10:46:28.803Z,17.95
2017-09-24T10:47:29.207Z,17.93
2017-09-24T10:48:29.100Z,17.82
2017-09-24T10:49:29.246Z,17.78
2017-09-24T10:50:28.783Z,17.8
2017-09-24T10:51:29.096Z,17.69
2017-09-24T10:52:29.591Z,17.66
2017-09-24T10:53:28.767Z,17.72
2017-09-24T10:54:29.070Z,17.72
2017-09-24T10:55:29.377Z,17.68
2017-09-24T10:56:29.063Z,17.6
2017-09-24T10:57:29.057Z,17.63
2017-09-24T10:58:29.051Z,17.68
2017-09-24T10:59:29.502Z,17.78
2017-09-24T11:00:29.040Z,17.82
2017-09-24T11:01:29.136Z,17.79
2017-09-24T11:02:29.133Z,17.87
2017-09-24T11:03:29.125Z,17.91
2017-09-24T11:04:29.479Z,17.94
2017-09-24T11:05:29.014Z,17.93
2017-09-24T11:06:29.015Z,17.95
2017-09-24T11:07:29.009Z,18.09
2017-09-24T11:08:29.005Z,18.09
2017-09-24T11:09:28.687Z,18.03
2017-09-24T11:10:28.987Z,18.13
2017-09-24T11:11:28.678Z,18.13
2017-09-24T11:12:28.770Z,18.15
2017-09-24T11:13:28.978Z,18.13
2017-09-24T11:14:28.970Z,18.15
2017-09-24T11:15:28.658Z,18.16
2017-09-24T11:16:28.958Z,18.09
2017-09-24T11:17:29.060Z,18.08
2017-09-24T11:18:28.789Z,18.08
2017-09-24T11:19:28.636Z,18.12
2017-09-24T11:20:28.631Z,18.05
2017-09-24T11:21:28.776Z,17.97
2017-09-24T11:22:28.625Z,18.09
2017-09-24T11:23:29.235Z,18.11
2017-09-24T11:24:28.921Z,18.18
2017-09-24T11:25:28.604Z,18.11
2017-09-24T11:26:28.702Z,18.12
2017-09-24T11:27:29.156Z,18.18
2017-09-24T11:28:28.593Z,18.21
2017-09-24T11:29:28.591Z,18.28
2017-09-24T11:30:28.887Z,18.39
2017-09-24T11:31:28.574Z,18.42
2017-09-24T11:32:28.879Z,18.42
2017-09-24T11:33:29.293Z,18.41
2017-09-24T11:34:28.874Z,18.46
2017-09-24T11:35:28.900Z,18.51
2017-09-24T11:36:28.867Z,18.51
2017-09-24T11:37:28.956Z,18.57
2017-09-24T11:38:28.850Z,18.52
2017-09-24T11:39:28.842Z,18.51
2017-09-24T11:40:28.990Z,18.66
2017-09-24T11:41:28.834Z,18.63
2017-09-24T11:42:28.833Z,18.7
2017-09-24T11:43:29.136Z,18.67
2017-09-24T11:44:28.822Z,18.68
2017-09-24T11:45:29.228Z,18.85
2017-09-24T11:46:29.125Z,18.92
2017-09-24T11:47:28.806Z,18.92
2017-09-24T11:48:28.593Z,18.97
2017-09-24T11:49:28.487Z,19.07
2017-09-24T11:50:29.091Z,19.16
2017-09-24T11:51:29.193Z,19.2
2017-09-24T11:52:28.790Z,19.19
2017-09-24T11:53:28.577Z,19.19
2017-09-24T11:54:29.085Z,19.22
2017-09-24T11:55:28.561Z,19.27
2017-09-24T11:56:28.653Z,19.22
2017-09-24T11:57:28.758Z,19.27
2017-09-24T11:58:28.446Z,19.24
2017-09-24T11:59:29.069Z,19.44
2017-09-24T12:00:29.050Z,19.42
2017-09-24T12:01:28.991Z,19.42
2017-09-24T12:02:28.428Z,19.44
2017-09-24T12:03:28.739Z,19.47
2017-09-24T12:04:28.730Z,19.57
2017-09-24T12:05:28.416Z,19.56
2017-09-24T12:06:28.717Z,19.6
2017-09-24T12:07:29.023Z,19.6
2017-09-24T12:08:28.708Z,19.7
2017-09-24T12:09:29.009Z,19.67
2017-09-24T12:10:28.389Z,19.71
2017-09-24T12:11:28.383Z,19.77
2017-09-24T12:12:28.689Z,19.77
2017-09-24T12:13:28.994Z,19.74
2017-09-24T12:14:28.370Z,19.79
2017-09-24T12:15:28.675Z,19.79
2017-09-24T12:16:28.359Z,19.85
2017-09-24T12:17:28.359Z,19.85
2017-09-24T12:18:28.970Z,19.81
2017-09-24T12:19:28.753Z,19.75
2017-09-24T12:20:28.443Z,19.78
2017-09-24T12:21:28.955Z,19.78
2017-09-24T12:22:28.638Z,19.74
2017-09-24T12:23:28.635Z,19.77
2017-09-24T12:24:28.632Z,19.9
2017-09-24T12:25:28.628Z,19.96
2017-09-24T12:26:29.133Z,20.08
2017-09-24T12:27:28.723Z,20.11
2017-09-24T12:28:28.614Z,20.14
2017-09-24T12:29:28.715Z,20.18
2017-09-24T12:30:28.606Z,20.11
2017-09-24T12:31:28.799Z,20.17
2017-09-24T12:32:28.286Z,20.12
2017-09-24T12:33:28.621Z,20.15
2017-09-24T12:34:28.736Z,20.19
2017-09-24T12:35:28.680Z,20.12
2017-09-24T12:36:28.981Z,20.22
2017-09-24T12:37:28.571Z,20.19
2017-09-24T12:38:28.572Z,20.15
2017-09-24T12:39:28.663Z,20.12
2017-09-24T12:40:28.867Z,20
2017-09-24T12:41:28.653Z,19.96
2017-09-24T12:42:28.550Z,19.99
2017-09-24T12:43:28.546Z,19.96
2017-09-24T12:44:28.539Z,20.04
2017-09-24T12:45:28.947Z,19.99
2017-09-24T12:46:28.684Z,20.07
2017-09-24T12:47:28.216Z,20.11
2017-09-24T12:48:28.518Z,20.22
2017-09-24T12:49:28.618Z,20.22
2017-09-24T12:50:28.204Z,20.26
2017-09-24T12:51:28.707Z,20.21
2017-09-24T12:52:28.506Z,20.29
2017-09-24T12:53:28.191Z,20.3
2017-09-24T12:54:28.492Z,20.42
2017-09-24T12:55:28.488Z,20.4